sensor_id;sensor_type;location;lat;lon;timestamp;P1;durP1;ratioP1;P2;durP2;ratioP2
20348;SDS011;10332;50.208;18.988;2023-12-04T00:02:09;47.57;;;24.30;;
20348;SDS011;10332;50.208;18.988;2023-12-04T00:04:36;46.53;;;22.27;;
20348;SDS011;10332;50.208;18.988;2023-12-04T00:07:04;47.50;;;23.10;;
20348;SDS011;10332;50.208;18.988;2023-12-04T00:09:31;44.60;;;21.70;;
20348;SDS011;10332;50.208;18.988;2023-12-04T00:11:59;49.00;;;24.43;;
20348;SDS011;10332;50.208;18.988;2023-12-04T00:14:26;48.47;;;24.23;;
20348;SDS011;10332;50.208;18.988;2023-12-04T00:16:55;46.67;;;23.17;;
20348;SDS011;10332;50.208;18.988;2023-12-04T00:19:22;47.00;;;24.00;;
20348;SDS011;10332;50.208;18.988;2023-12-04T00:21:50;53.47;;;24.37;;
20348;SDS011;10332;50.208;18.988;2023-12-04T00:24:17;48.07;;;24.47;;
20348;SDS011;10332;50.208;18.988;2023-12-04T00:26:45;49.23;;;22.43;;
20348;SDS011;10332;50.208;18.988;2023-12-04T00:29:13;43.33;;;22.17;;
20348;SDS011;10332;50.208;18.988;2023-12-04T00:31:41;44.70;;;22.17;;
20348;SDS011;10332;50.208;18.988;2023-12-04T00:34:09;47.90;;;24.13;;
20348;SDS011;10332;50.208;18.988;2023-12-04T00:36:36;56.83;;;25.53;;
20348;SDS011;10332;50.208;18.988;2023-12-04T00:39:04;47.23;;;23.83;;
20348;SDS011;10332;50.208;18.988;2023-12-04T00:41:32;52.10;;;24.37;;
20348;SDS011;10332;50.208;18.988;2023-12-04T00:43:59;46.60;;;23.20;;
20348;SDS011;10332;50.208;18.988;2023-12-04T00:46:26;44.43;;;23.93;;
20348;SDS011;10332;50.208;18.988;2023-12-04T00:48:54;47.43;;;23.87;;
20348;SDS011;10332;50.208;18.988;2023-12-04T00:51:21;45.10;;;23.87;;
20348;SDS011;10332;50.208;18.988;2023-12-04T00:53:48;48.17;;;24.53;;
20348;SDS011;10332;50.208;18.988;2023-12-04T00:56:16;51.60;;;23.27;;
20348;SDS011;10332;50.208;18.988;2023-12-04T00:58:43;53.97;;;25.80;;
20348;SDS011;10332;50.208;18.988;2023-12-04T01:01:11;50.50;;;24.50;;
20348;SDS011;10332;50.208;18.988;2023-12-04T01:03:38;48.13;;;24.43;;
20348;SDS011;10332;50.208;18.988;2023-12-04T01:06:05;48.60;;;23.73;;
20348;SDS011;10332;50.208;18.988;2023-12-04T01:08:33;43.70;;;22.77;;
20348;SDS011;10332;50.208;18.988;2023-12-04T01:11:00;52.47;;;24.90;;
20348;SDS011;10332;50.208;18.988;2023-12-04T01:13:27;45.33;;;23.40;;
20348;SDS011;10332;50.208;18.988;2023-12-04T01:15:55;47.73;;;24.20;;
20348;SDS011;10332;50.208;18.988;2023-12-04T01:18:22;47.53;;;23.63;;
20348;SDS011;10332;50.208;18.988;2023-12-04T01:20:50;50.83;;;24.43;;
20348;SDS011;10332;50.208;18.988;2023-12-04T01:23:17;44.63;;;21.37;;
20348;SDS011;10332;50.208;18.988;2023-12-04T01:25:44;43.93;;;21.63;;
20348;SDS011;10332;50.208;18.988;2023-12-04T01:28:12;46.43;;;23.20;;
20348;SDS011;10332;50.208;18.988;2023-12-04T01:30:40;46.13;;;22.47;;
20348;SDS011;10332;50.208;18.988;2023-12-04T01:33:07;42.77;;;21.90;;
20348;SDS011;10332;50.208;18.988;2023-12-04T01:35:35;45.33;;;22.37;;
20348;SDS011;10332;50.208;18.988;2023-12-04T01:38:02;48.83;;;24.13;;
20348;SDS011;10332;50.208;18.988;2023-12-04T01:40:30;40.73;;;20.23;;
20348;SDS011;10332;50.208;18.988;2023-12-04T01:42:57;41.77;;;21.47;;
20348;SDS011;10332;50.208;18.988;2023-12-04T01:45:24;41.13;;;22.00;;
20348;SDS011;10332;50.208;18.988;2023-12-04T01:47:53;39.37;;;20.57;;
20348;SDS011;10332;50.208;18.988;2023-12-04T01:50:21;42.77;;;22.30;;
20348;SDS011;10332;50.208;18.988;2023-12-04T01:52:49;44.00;;;22.77;;
20348;SDS011;10332;50.208;18.988;2023-12-04T01:55:17;44.87;;;23.50;;
20348;SDS011;10332;50.208;18.988;2023-12-04T01:57:45;42.33;;;21.77;;
20348;SDS011;10332;50.208;18.988;2023-12-04T02:00:12;37.03;;;20.60;;
20348;SDS011;10332;50.208;18.988;2023-12-04T02:02:41;40.13;;;19.87;;
20348;SDS011;10332;50.208;18.988;2023-12-04T02:05:09;42.87;;;22.40;;
20348;SDS011;10332;50.208;18.988;2023-12-04T02:07:38;37.90;;;20.23;;
20348;SDS011;10332;50.208;18.988;2023-12-04T02:10:08;38.50;;;20.93;;
20348;SDS011;10332;50.208;18.988;2023-12-04T02:12:35;45.70;;;23.23;;
20348;SDS011;10332;50.208;18.988;2023-12-04T02:15:03;46.70;;;23.57;;
20348;SDS011;10332;50.208;18.988;2023-12-04T02:17:31;39.10;;;20.07;;
20348;SDS011;10332;50.208;18.988;2023-12-04T02:20:01;47.20;;;23.07;;
20348;SDS011;10332;50.208;18.988;2023-12-04T02:22:30;46.17;;;24.07;;
20348;SDS011;10332;50.208;18.988;2023-12-04T02:24:57;47.57;;;24.73;;
20348;SDS011;10332;50.208;18.988;2023-12-04T02:27:28;52.73;;;26.47;;
20348;SDS011;10332;50.208;18.988;2023-12-04T02:29:59;51.10;;;27.10;;
20348;SDS011;10332;50.208;18.988;2023-12-04T02:32:28;48.00;;;26.57;;
20348;SDS011;10332;50.208;18.988;2023-12-04T02:34:58;51.53;;;28.10;;
20348;SDS011;10332;50.208;18.988;2023-12-04T02:37:29;48.07;;;26.87;;
20348;SDS011;10332;50.208;18.988;2023-12-04T02:39:57;52.40;;;26.50;;
20348;SDS011;10332;50.208;18.988;2023-12-04T02:42:25;54.50;;;27.37;;
20348;SDS011;10332;50.208;18.988;2023-12-04T02:44:53;54.10;;;27.37;;
20348;SDS011;10332;50.208;18.988;2023-12-04T02:47:20;48.33;;;25.73;;
20348;SDS011;10332;50.208;18.988;2023-12-04T02:49:48;49.53;;;26.47;;
20348;SDS011;10332;50.208;18.988;2023-12-04T02:52:15;49.00;;;24.83;;
20348;SDS011;10332;50.208;18.988;2023-12-04T02:54:42;44.63;;;25.53;;
20348;SDS011;10332;50.208;18.988;2023-12-04T02:57:10;50.40;;;25.93;;
20348;SDS011;10332;50.208;18.988;2023-12-04T02:59:37;51.60;;;25.37;;
20348;SDS011;10332;50.208;18.988;2023-12-04T03:02:04;47.20;;;25.40;;
20348;SDS011;10332;50.208;18.988;2023-12-04T03:04:32;48.10;;;25.40;;
20348;SDS011;10332;50.208;18.988;2023-12-04T03:07:01;51.17;;;26.77;;
20348;SDS011;10332;50.208;18.988;2023-12-04T03:09:28;48.67;;;25.50;;
20348;SDS011;10332;50.208;18.988;2023-12-04T03:12:15;50.73;;;24.73;;
20348;SDS011;10332;50.208;18.988;2023-12-04T03:14:43;48.07;;;25.63;;
20348;SDS011;10332;50.208;18.988;2023-12-04T03:17:11;48.07;;;26.03;;
20348;SDS011;10332;50.208;18.988;2023-12-04T03:19:40;49.13;;;25.80;;
20348;SDS011;10332;50.208;18.988;2023-12-04T03:22:07;49.90;;;25.27;;
20348;SDS011;10332;50.208;18.988;2023-12-04T03:24:35;47.30;;;24.63;;
20348;SDS011;10332;50.208;18.988;2023-12-04T03:27:02;50.80;;;27.60;;
20348;SDS011;10332;50.208;18.988;2023-12-04T03:29:29;49.83;;;25.20;;
20348;SDS011;10332;50.208;18.988;2023-12-04T03:31:57;46.03;;;24.27;;
20348;SDS011;10332;50.208;18.988;2023-12-04T03:34:24;46.23;;;25.47;;
20348;SDS011;10332;50.208;18.988;2023-12-04T03:36:52;49.10;;;24.70;;
20348;SDS011;10332;50.208;18.988;2023-12-04T03:39:19;50.87;;;25.50;;
20348;SDS011;10332;50.208;18.988;2023-12-04T03:41:47;49.57;;;26.27;;
20348;SDS011;10332;50.208;18.988;2023-12-04T03:44:14;53.20;;;26.63;;
20348;SDS011;10332;50.208;18.988;2023-12-04T03:46:41;46.00;;;25.30;;
20348;SDS011;10332;50.208;18.988;2023-12-04T03:49:09;48.13;;;24.93;;
20348;SDS011;10332;50.208;18.988;2023-12-04T03:51:36;48.47;;;25.87;;
20348;SDS011;10332;50.208;18.988;2023-12-04T03:54:03;44.93;;;23.97;;
20348;SDS011;10332;50.208;18.988;2023-12-04T03:56:31;51.97;;;26.43;;
20348;SDS011;10332;50.208;18.988;2023-12-04T03:58:58;45.90;;;24.90;;
20348;SDS011;10332;50.208;18.988;2023-12-04T04:01:25;48.43;;;25.53;;
20348;SDS011;10332;50.208;18.988;2023-12-04T04:03:53;43.60;;;23.67;;
20348;SDS011;10332;50.208;18.988;2023-12-04T04:06:20;46.33;;;25.93;;
20348;SDS011;10332;50.208;18.988;2023-12-04T04:08:48;45.07;;;25.00;;
20348;SDS011;10332;50.208;18.988;2023-12-04T04:11:15;48.63;;;25.90;;
20348;SDS011;10332;50.208;18.988;2023-12-04T04:13:42;46.93;;;24.43;;
20348;SDS011;10332;50.208;18.988;2023-12-04T04:16:13;49.10;;;26.70;;
20348;SDS011;10332;50.208;18.988;2023-12-04T04:18:42;43.97;;;25.50;;
20348;SDS011;10332;50.208;18.988;2023-12-04T04:21:10;48.00;;;24.37;;
20348;SDS011;10332;50.208;18.988;2023-12-04T04:23:37;42.87;;;23.13;;
20348;SDS011;10332;50.208;18.988;2023-12-04T04:26:05;44.87;;;22.83;;
20348;SDS011;10332;50.208;18.988;2023-12-04T04:28:32;46.23;;;24.37;;
20348;SDS011;10332;50.208;18.988;2023-12-04T04:30:59;48.43;;;24.33;;
20348;SDS011;10332;50.208;18.988;2023-12-04T04:33:27;43.17;;;23.50;;
20348;SDS011;10332;50.208;18.988;2023-12-04T04:35:54;43.53;;;23.23;;
20348;SDS011;10332;50.208;18.988;2023-12-04T04:38:22;46.63;;;24.17;;
20348;SDS011;10332;50.208;18.988;2023-12-04T04:40:49;44.10;;;23.37;;
20348;SDS011;10332;50.208;18.988;2023-12-04T04:43:16;47.87;;;25.73;;
20348;SDS011;10332;50.208;18.988;2023-12-04T04:45:44;46.50;;;24.93;;
20348;SDS011;10332;50.208;18.988;2023-12-04T04:48:11;46.10;;;24.60;;
20348;SDS011;10332;50.208;18.988;2023-12-04T04:50:39;43.80;;;22.93;;
20348;SDS011;10332;50.208;18.988;2023-12-04T04:53:06;40.90;;;22.67;;
20348;SDS011;10332;50.208;18.988;2023-12-04T04:55:33;41.67;;;23.40;;
20348;SDS011;10332;50.208;18.988;2023-12-04T04:58:15;47.80;;;25.30;;
20348;SDS011;10332;50.208;18.988;2023-12-04T05:00:43;43.50;;;23.70;;
20348;SDS011;10332;50.208;18.988;2023-12-04T05:03:11;45.27;;;23.37;;
20348;SDS011;10332;50.208;18.988;2023-12-04T05:05:39;45.30;;;24.60;;
20348;SDS011;10332;50.208;18.988;2023-12-04T05:08:06;47.90;;;24.80;;
20348;SDS011;10332;50.208;18.988;2023-12-04T05:10:34;44.90;;;24.97;;
20348;SDS011;10332;50.208;18.988;2023-12-04T05:13:01;49.73;;;25.77;;
20348;SDS011;10332;50.208;18.988;2023-12-04T05:15:28;46.60;;;23.60;;
20348;SDS011;10332;50.208;18.988;2023-12-04T05:17:56;44.90;;;23.27;;
20348;SDS011;10332;50.208;18.988;2023-12-04T05:20:24;47.03;;;24.00;;
20348;SDS011;10332;50.208;18.988;2023-12-04T05:22:51;48.10;;;24.87;;
20348;SDS011;10332;50.208;18.988;2023-12-04T05:25:19;52.17;;;26.20;;
20348;SDS011;10332;50.208;18.988;2023-12-04T05:27:46;47.77;;;25.23;;
20348;SDS011;10332;50.208;18.988;2023-12-04T05:30:16;49.60;;;25.77;;
20348;SDS011;10332;50.208;18.988;2023-12-04T05:32:43;51.57;;;26.67;;
20348;SDS011;10332;50.208;18.988;2023-12-04T05:35:11;54.60;;;27.47;;
20348;SDS011;10332;50.208;18.988;2023-12-04T05:37:38;50.87;;;25.87;;
20348;SDS011;10332;50.208;18.988;2023-12-04T05:40:06;52.03;;;26.03;;
20348;SDS011;10332;50.208;18.988;2023-12-04T05:42:34;50.03;;;25.23;;
20348;SDS011;10332;50.208;18.988;2023-12-04T05:45:02;51.83;;;25.87;;
20348;SDS011;10332;50.208;18.988;2023-12-04T05:47:30;56.87;;;28.13;;
20348;SDS011;10332;50.208;18.988;2023-12-04T05:49:57;48.67;;;25.40;;
20348;SDS011;10332;50.208;18.988;2023-12-04T05:52:25;50.17;;;25.13;;
20348;SDS011;10332;50.208;18.988;2023-12-04T05:54:52;52.63;;;25.47;;
20348;SDS011;10332;50.208;18.988;2023-12-04T05:57:19;59.13;;;29.03;;
20348;SDS011;10332;50.208;18.988;2023-12-04T05:59:47;55.07;;;28.63;;
20348;SDS011;10332;50.208;18.988;2023-12-04T06:02:15;61.80;;;28.70;;
20348;SDS011;10332;50.208;18.988;2023-12-04T06:04:42;50.30;;;25.27;;
20348;SDS011;10332;50.208;18.988;2023-12-04T06:07:09;51.87;;;27.73;;
20348;SDS011;10332;50.208;18.988;2023-12-04T06:09:37;55.20;;;27.57;;
20348;SDS011;10332;50.208;18.988;2023-12-04T06:12:04;55.33;;;28.00;;
20348;SDS011;10332;50.208;18.988;2023-12-04T06:14:35;58.13;;;27.33;;
20348;SDS011;10332;50.208;18.988;2023-12-04T06:17:03;52.00;;;25.90;;
20348;SDS011;10332;50.208;18.988;2023-12-04T06:19:31;57.03;;;27.77;;
20348;SDS011;10332;50.208;18.988;2023-12-04T06:21:58;57.97;;;27.67;;
20348;SDS011;10332;50.208;18.988;2023-12-04T06:24:26;52.63;;;25.47;;
20348;SDS011;10332;50.208;18.988;2023-12-04T06:26:53;48.30;;;25.60;;
20348;SDS011;10332;50.208;18.988;2023-12-04T06:29:21;48.27;;;25.50;;
20348;SDS011;10332;50.208;18.988;2023-12-04T06:31:48;48.70;;;25.40;;
20348;SDS011;10332;50.208;18.988;2023-12-04T06:34:16;50.73;;;25.43;;
20348;SDS011;10332;50.208;18.988;2023-12-04T06:36:43;53.40;;;26.80;;
20348;SDS011;10332;50.208;18.988;2023-12-04T06:39:11;53.23;;;26.73;;
20348;SDS011;10332;50.208;18.988;2023-12-04T06:41:39;56.10;;;26.40;;
20348;SDS011;10332;50.208;18.988;2023-12-04T06:44:07;60.20;;;28.90;;
20348;SDS011;10332;50.208;18.988;2023-12-04T06:46:38;48.63;;;25.53;;
20348;SDS011;10332;50.208;18.988;2023-12-04T06:49:06;52.50;;;26.83;;
20348;SDS011;10332;50.208;18.988;2023-12-04T06:51:35;57.90;;;29.67;;
20348;SDS011;10332;50.208;18.988;2023-12-04T06:54:03;61.27;;;31.33;;
20348;SDS011;10332;50.208;18.988;2023-12-04T06:56:31;67.43;;;32.17;;
20348;SDS011;10332;50.208;18.988;2023-12-04T06:58:58;67.73;;;32.93;;
20348;SDS011;10332;50.208;18.988;2023-12-04T07:01:26;59.40;;;29.97;;
20348;SDS011;10332;50.208;18.988;2023-12-04T07:03:53;63.60;;;31.07;;
20348;SDS011;10332;50.208;18.988;2023-12-04T07:06:21;54.00;;;28.70;;
20348;SDS011;10332;50.208;18.988;2023-12-04T07:08:48;61.57;;;30.00;;
20348;SDS011;10332;50.208;18.988;2023-12-04T07:11:15;58.37;;;28.93;;
20348;SDS011;10332;50.208;18.988;2023-12-04T07:13:43;59.90;;;30.77;;
20348;SDS011;10332;50.208;18.988;2023-12-04T07:16:10;61.57;;;31.20;;
20348;SDS011;10332;50.208;18.988;2023-12-04T07:18:38;57.83;;;28.80;;
20348;SDS011;10332;50.208;18.988;2023-12-04T07:21:05;63.30;;;30.30;;
20348;SDS011;10332;50.208;18.988;2023-12-04T07:23:33;60.97;;;30.83;;
20348;SDS011;10332;50.208;18.988;2023-12-04T07:26:00;58.07;;;28.43;;
20348;SDS011;10332;50.208;18.988;2023-12-04T07:28:27;59.57;;;30.30;;
20348;SDS011;10332;50.208;18.988;2023-12-04T07:30:55;54.00;;;28.50;;
20348;SDS011;10332;50.208;18.988;2023-12-04T07:33:22;58.50;;;28.57;;
20348;SDS011;10332;50.208;18.988;2023-12-04T07:35:50;55.83;;;27.87;;
20348;SDS011;10332;50.208;18.988;2023-12-04T07:38:18;56.53;;;28.33;;
20348;SDS011;10332;50.208;18.988;2023-12-04T07:40:46;56.43;;;28.30;;
20348;SDS011;10332;50.208;18.988;2023-12-04T07:43:13;50.90;;;25.60;;
20348;SDS011;10332;50.208;18.988;2023-12-04T07:45:41;43.67;;;22.27;;
20348;SDS011;10332;50.208;18.988;2023-12-04T07:48:09;43.10;;;23.17;;
20348;SDS011;10332;50.208;18.988;2023-12-04T07:50:36;41.87;;;23.80;;
20348;SDS011;10332;50.208;18.988;2023-12-04T07:53:05;41.20;;;22.27;;
20348;SDS011;10332;50.208;18.988;2023-12-04T07:55:34;42.20;;;20.97;;
20348;SDS011;10332;50.208;18.988;2023-12-04T07:58:02;42.67;;;21.83;;
